Time;durP1;ratioP1;P1;durP2;ratioP2;P2;SDS_P1;SDS_P2;PMS_P1;PMS_P2;Temp;Humidity;BMP_temperature;BMP_pressure;BME280_temperature;BME280_humidity;BME280_pressure;Samples;Min_cycle;Max_cycle;Signal;HPM_P1;HPM_P2
2021/06/02 00:02:12;;;;;;;0.20;0.20;;;16.40;99.90;;;;;;4996468;28;21004;-80
2021/06/02 00:04:51;;;;;;;0.20;0.20;;;16.40;99.90;;;;;;4996723;28;20212;-81
2021/06/02 00:07:25;;;;;;;0.20;0.20;;;16.40;99.90;;;;;;5011366;28;20190;-81
2021/06/02 00:09:52;;;;;;;0.20;0.20;;;16.20;99.90;;;;;;5011864;28;20546;-81
2021/06/02 00:12:18;;;;;;;1.07;0.50;;;16.30;99.90;;;;;;5044833;28;20633;-81
2021/06/02 00:14:45;;;;;;;0.20;0.20;;;16.20;99.90;;;;;;5012196;28;20318;-80
2021/06/02 00:17:11;;;;;;;0.20;0.20;;;16.30;99.90;;;;;;5013709;28;20644;-81
2021/06/02 00:19:37;;;;;;;0.20;0.20;;;16.30;99.90;;;;;;5014979;28;20183;-81
2021/06/02 00:22:05;;;;;;;0.20;0.20;;;16.40;99.90;;;;;;5006032;28;20214;-80
2021/06/02 00:24:31;;;;;;;0.40;0.40;;;16.30;99.90;;;;;;5013187;28;20207;-81
2021/06/02 00:27:00;;;;;;;0.43;0.40;;;16.20;99.90;;;;;;5019740;28;20191;-81
2021/06/02 00:29:36;;;;;;;0.80;0.37;;;16.20;99.90;;;;;;5006431;28;20194;-80
2021/06/02 00:32:07;;;;;;;0.43;0.43;;;16.10;99.90;;;;;;4996136;28;20195;-80
2021/06/02 00:34:34;;;;;;;1.67;0.90;;;16.10;99.90;;;;;;4994825;28;20261;-81
2021/06/02 00:37:01;;;;;;;0.30;0.30;;;16.20;99.90;;;;;;5017306;28;20215;-81
2021/06/02 00:39:26;;;;;;;1.30;1.13;;;16.30;99.90;;;;;;5010920;28;20179;-80
2021/06/02 00:41:54;;;;;;;0.20;0.20;;;16.40;99.90;;;;;;4994527;28;20334;-80
2021/06/02 00:44:20;;;;;;;0.17;0.17;;;16.40;99.90;;;;;;5004559;28;20683;-80
2021/06/02 00:46:46;;;;;;;0.67;0.43;;;16.30;99.90;;;;;;5009948;28;20206;-79
2021/06/02 00:49:24;;;;;;;0.50;0.50;;;16.30;99.90;;;;;;5012686;28;20667;-79
2021/06/02 00:52:01;;;;;;;0.40;0.40;;;16.30;99.90;;;;;;5012265;28;20349;-81
2021/06/02 00:54:30;;;;;;;0.30;0.30;;;16.30;99.90;;;;;;5010445;28;20555;-79
2021/06/02 00:57:11;;;;;;;0.30;0.30;;;16.30;99.90;;;;;;5014229;28;20210;-81
2021/06/02 00:59:43;;;;;;;0.37;0.37;;;16.20;99.90;;;;;;5012824;28;20182;-81
2021/06/02 01:02:20;;;;;;;0.40;0.33;;;16.20;99.90;;;;;;5003671;28;20251;-80
2021/06/02 01:04:48;;;;;;;0.30;0.30;;;15.90;99.90;;;;;;5007049;28;20203;-80
2021/06/02 01:07:14;;;;;;;2.50;0.43;;;15.90;99.90;;;;;;4995087;28;20196;-81
2021/06/02 01:09:49;;;;;;;0.17;0.17;;;15.60;99.90;;;;;;5006632;28;20191;-80
2021/06/02 01:12:17;;;;;;;0.10;0.10;;;15.50;99.90;;;;;;5005573;28;20198;-81
2021/06/02 01:14:45;;;;;;;0.63;0.43;;;15.30;99.90;;;;;;5000133;28;20216;-79
2021/06/02 01:17:19;;;;;;;0.30;0.30;;;15.20;99.90;;;;;;5007452;28;20211;-81
2021/06/02 01:19:44;;;;;;;0.37;0.37;;;15.10;99.90;;;;;;5011591;28;20191;-81
2021/06/02 01:22:11;;;;;;;1.67;1.10;;;14.90;99.90;;;;;;5014222;28;20193;-81
2021/06/02 01:24:37;;;;;;;0.50;0.50;;;14.80;99.90;;;;;;5012997;28;20709;-81
2021/06/02 01:27:05;;;;;;;0.30;0.30;;;14.80;99.90;;;;;;5011859;28;20195;-81
2021/06/02 01:29:33;;;;;;;0.20;0.20;;;14.70;99.90;;;;;;5013203;28;20629;-81
2021/06/02 01:32:36;;;;;;;0.10;0.10;;;14.70;99.90;;;;;;5009351;28;20651;-80
2021/06/02 01:35:26;;;;;;;0.10;0.10;;;14.80;99.90;;;;;;5012116;28;20202;-80
2021/06/02 01:38:19;;;;;;;0.30;0.20;;;14.90;99.90;;;;;;5003788;28;20188;-80
2021/06/02 01:41:05;;;;;;;0.40;0.40;;;15.00;99.90;;;;;;5002051;28;20237;-81
2021/06/02 01:43:49;;;;;;;0.10;0.10;;;15.10;99.90;;;;;;5008807;28;20674;-81
2021/06/02 01:46:34;;;;;;;3.60;0.27;;;15.10;99.90;;;;;;5000438;28;20192;-79
2021/06/02 01:49:37;;;;;;;1.37;0.60;;;15.10;99.90;;;;;;4994685;28;20183;-81
2021/06/02 01:52:40;;;;;;;1.13;0.50;;;15.30;99.90;;;;;;5004890;28;20183;-80
2021/06/02 01:55:08;;;;;;;0.50;0.30;;;15.20;99.90;;;;;;5028170;28;20203;-81
2021/06/02 01:58:10;;;;;;;0.40;0.40;;;15.20;99.90;;;;;;5016444;28;20564;-80
2021/06/02 02:01:04;;;;;;;0.70;0.70;;;15.00;99.90;;;;;;5010244;28;20309;-81
2021/06/02 02:03:48;;;;;;;0.60;0.60;;;14.80;99.90;;;;;;4999796;28;20659;-81
2021/06/02 02:06:19;;;;;;;0.73;0.40;;;14.70;99.90;;;;;;5010295;28;20558;-81
2021/06/02 02:08:55;;;;;;;0.43;0.40;;;14.60;99.90;;;;;;5013458;28;20548;-81
2021/06/02 02:11:37;;;;;;;0.47;0.43;;;14.60;99.90;;;;;;5011111;28;20214;-81
2021/06/02 02:14:09;;;;;;;0.17;0.17;;;14.50;99.90;;;;;;4999287;28;20261;-80
2021/06/02 02:17:11;;;;;;;0.47;0.47;;;14.50;99.90;;;;;;5000828;28;20313;-83
2021/06/02 02:20:14;;;;;;;0.13;0.13;;;14.40;99.90;;;;;;4990504;28;20230;-82
2021/06/02 02:23:21;;;;;;;0.17;0.17;;;14.40;99.90;;;;;;5013673;28;20316;-83
2021/06/02 02:26:13;;;;;;;0.10;0.10;;;14.30;99.90;;;;;;4998954;28;20214;-80
2021/06/02 02:28:44;;;;;;;0.17;0.17;;;14.20;99.90;;;;;;5007642;28;20187;-81
2021/06/02 02:31:43;;;;;;;0.20;0.20;;;14.30;99.90;;;;;;5010343;28;20241;-80
2021/06/02 02:34:41;;;;;;;0.30;0.30;;;14.40;99.90;;;;;;4994846;28;20202;-79
2021/06/02 02:37:15;;;;;;;0.30;0.20;;;14.40;99.90;;;;;;5011376;28;20222;-81
2021/06/02 02:39:49;;;;;;;0.30;0.30;;;14.10;99.90;;;;;;5000450;28;20199;-81
2021/06/02 02:42:32;;;;;;;0.20;0.20;;;13.90;99.90;;;;;;4993884;28;20201;-81
2021/06/02 02:45:04;;;;;;;0.40;0.33;;;13.70;99.90;;;;;;5000985;28;20237;-81
2021/06/02 02:47:34;;;;;;;0.30;0.30;;;13.80;99.90;;;;;;5031410;28;20222;-80
2021/06/02 02:50:27;;;;;;;0.20;0.20;;;13.80;99.90;;;;;;5016290;28;20678;-80
2021/06/02 02:53:05;;;;;;;0.30;0.30;;;13.90;99.90;;;;;;5009175;28;20293;-80
2021/06/02 02:55:36;;;;;;;0.23;0.23;;;14.00;99.90;;;;;;5014827;28;20681;-80
2021/06/02 02:58:17;;;;;;;0.20;0.20;;;14.10;99.90;;;;;;5013198;28;20186;-80
2021/06/02 03:00:50;;;;;;;0.30;0.30;;;14.10;99.90;;;;;;5015355;28;20202;-81
2021/06/02 03:03:32;;;;;;;0.53;0.50;;;13.90;99.90;;;;;;5009880;28;20191;-81
2021/06/02 03:06:07;;;;;;;0.30;0.30;;;13.70;99.90;;;;;;4999785;28;20218;-79
2021/06/02 03:09:08;;;;;;;0.30;0.30;;;13.50;99.90;;;;;;5010599;28;20201;-80
2021/06/02 03:12:01;;;;;;;6.30;0.97;;;13.40;99.90;;;;;;4980468;28;20201;-79
2021/06/02 03:15:00;;;;;;;0.30;0.30;;;13.20;99.90;;;;;;5040473;28;20226;-79
2021/06/02 03:17:44;;;;;;;0.40;0.40;;;13.20;99.90;;;;;;5015740;28;20709;-80
2021/06/02 03:20:10;;;;;;;0.37;0.10;;;13.30;99.90;;;;;;5014913;28;20269;-81
2021/06/02 03:23:24;;;;;;;0.10;0.10;;;13.30;99.90;;;;;;5009376;28;20185;-80
2021/06/02 03:26:09;;;;;;;0.27;0.27;;;13.50;99.90;;;;;;4991703;28;20230;-81
2021/06/02 03:29:01;;;;;;;0.10;0.10;;;13.60;99.90;;;;;;4977427;28;20632;-79
2021/06/02 03:31:33;;;;;;;0.20;0.20;;;13.60;99.90;;;;;;5012499;28;20206;-80
2021/06/02 03:34:20;;;;;;;0.63;0.60;;;13.60;99.90;;;;;;4997716;28;20212;-80
2021/06/02 03:37:26;;;;;;;0.30;0.30;;;13.60;99.90;;;;;;5010400;28;20593;-80
2021/06/02 03:40:16;;;;;;;0.20;0.20;;;13.70;99.90;;;;;;5000776;28;20295;-80
2021/06/02 03:42:48;;;;;;;0.30;0.30;;;13.80;99.90;;;;;;5004141;28;20198;-80
2021/06/02 03:45:35;;;;;;;0.20;0.20;;;14.00;99.90;;;;;;5005279;28;20741;-79
2021/06/02 03:48:17;;;;;;;0.20;0.20;;;14.10;99.90;;;;;;4995897;28;20185;-80
2021/06/02 03:50:59;;;;;;;0.10;0.10;;;14.30;99.90;;;;;;5006712;28;20204;-80
2021/06/02 03:53:31;;;;;;;0.40;0.40;;;14.50;99.90;;;;;;5015060;28;20175;-79
2021/06/02 03:56:23;;;;;;;0.30;0.20;;;14.80;99.90;;;;;;5010575;28;20210;-81
2021/06/02 03:59:12;;;;;;;0.20;0.20;;;14.90;99.90;;;;;;5002451;28;20198;-80
2021/06/02 04:01:54;;;;;;;0.20;0.20;;;16.40;99.90;;;;;;5012798;28;20741;-80
2021/06/02 04:04:55;;;;;;;0.13;0.13;;;17.80;99.90;;;;;;5011945;28;20214;-81
2021/06/02 04:07:44;;;;;;;1.33;0.50;;;19.00;99.90;;;;;;5014142;28;20198;-81
2021/06/02 04:10:26;;;;;;;0.50;0.50;;;18.10;99.90;;;;;;4998114;28;20200;-80
2021/06/02 04:13:19;;;;;;;0.50;0.50;;;17.80;99.90;;;;;;4993888;28;20286;-80
2021/06/02 04:15:48;;;;;;;0.20;0.20;;;17.90;99.90;;;;;;4997341;28;20225;-81
2021/06/02 04:18:22;;;;;;;0.27;0.27;;;19.00;99.90;;;;;;5013718;28;20210;-80
2021/06/02 04:20:48;;;;;;;0.87;0.30;;;19.70;99.90;;;;;;5012019;28;20207;-79
2021/06/02 04:23:15;;;;;;;0.43;0.30;;;19.30;99.90;;;;;;5011535;28;20214;-80
2021/06/02 04:25:42;;;;;;;0.63;0.63;;;18.70;99.90;;;;;;5003433;28;20294;-80
2021/06/02 04:28:08;;;;;;;0.10;0.10;;;18.60;99.90;;;;;;5005390;28;20274;-81
2021/06/02 04:30:37;;;;;;;0.10;0.10;;;18.50;99.90;;;;;;5004360;28;20871;-81
2021/06/02 04:33:03;;;;;;;0.30;0.30;;;18.30;99.90;;;;;;4995436;28;20287;-81
2021/06/02 04:35:31;;;;;;;0.20;0.20;;;18.20;99.90;;;;;;5008762;28;20290;-80
2021/06/02 04:37:57;;;;;;;0.33;0.33;;;18.10;99.90;;;;;;5003084;28;20187;-80
2021/06/02 04:40:24;;;;;;;0.20;0.20;;;17.70;99.90;;;;;;5006765;28;20190;-81
2021/06/02 04:42:51;;;;;;;0.50;0.40;;;17.50;99.90;;;;;;5004487;28;20720;-81
2021/06/02 04:45:26;;;;;;;0.40;0.40;;;17.50;99.90;;;;;;4999916;28;20239;-83
2021/06/02 04:47:53;;;;;;;0.27;0.27;;;17.40;99.90;;;;;;5009998;28;20306;-83
2021/06/02 04:50:30;;;;;;;1.03;0.50;;;17.30;99.90;;;;;;5009881;28;20648;-83
2021/06/02 04:53:37;;;;;;;0.20;0.20;;;17.30;99.90;;;;;;5014268;28;20186;-83
2021/06/02 04:56:37;;;;;;;0.27;0.27;;;17.20;99.90;;;;;;5004412;28;20257;-84
2021/06/02 04:59:40;;;;;;;0.23;0.23;;;17.10;99.90;;;;;;5002374;28;20234;-80
2021/06/02 05:02:43;;;;;;;0.30;0.30;;;16.90;99.90;;;;;;5006627;28;20523;-81
2021/06/02 05:05:22;;;;;;;0.50;0.23;;;16.80;99.90;;;;;;5012955;28;20221;-79
2021/06/02 05:07:48;;;;;;;0.30;0.30;;;16.70;99.90;;;;;;4996809;28;20215;-80
2021/06/02 05:11:04;;;;;;;0.57;0.57;;;16.70;99.90;;;;;;5002507;28;20184;-80
2021/06/02 05:13:57;;;;;;;1.20;1.10;;;16.70;99.90;;;;;;4996070;28;20202;-80
2021/06/02 05:16:37;;;;;;;0.33;0.33;;;16.70;99.90;;;;;;5008627;28;20596;-83
2021/06/02 05:19:56;;;;;;;0.70;0.40;;;16.70;99.90;;;;;;5000707;28;20668;-83
2021/06/02 05:22:22;;;;;;;0.67;0.50;;;16.50;99.90;;;;;;5003940;28;20203;-84
2021/06/02 05:25:28;;;;;;;0.83;0.27;;;16.50;99.90;;;;;;5008191;28;20206;-84
2021/06/02 05:28:08;;;;;;;0.90;0.57;;;16.50;99.90;;;;;;5023435;28;20276;-80
2021/06/02 05:30:59;;;;;;;0.67;0.50;;;16.50;99.90;;;;;;5015608;28;20285;-80
2021/06/02 05:33:46;;;;;;;0.40;0.30;;;16.60;99.90;;;;;;5042349;28;20539;-83
2021/06/02 05:36:11;;;;;;;0.20;0.20;;;16.60;99.90;;;;;;5019587;28;20206;-82
2021/06/02 05:39:12;;;;;;;0.30;0.30;;;16.80;99.90;;;;;;5010193;28;20187;-84
2021/06/02 05:41:42;;;;;;;0.23;0.23;;;16.80;99.90;;;;;;4995704;28;20187;-83
2021/06/02 05:44:46;;;;;;;0.10;0.10;;;17.00;99.90;;;;;;5003976;28;20195;-83
2021/06/02 05:47:34;;;;;;;0.27;0.27;;;17.10;99.90;;;;;;5010404;28;20546;-83
2021/06/02 05:50:27;;;;;;;0.63;0.63;;;17.10;99.90;;;;;;5019121;28;20278;-84
2021/06/02 05:53:30;;;;;;;0.40;0.40;;;17.00;99.90;;;;;;5010235;28;20274;-83
2021/06/02 05:56:37;;;;;;;0.20;0.20;;;17.10;99.90;;;;;;5011697;28;20292;-82
2021/06/02 05:59:48;;;;;;;0.30;0.30;;;17.40;99.90;;;;;;4986575;28;20202;-83
2021/06/02 06:02:51;;;;;;;0.23;0.23;;;17.60;99.90;;;;;;5005888;28;20186;-83
2021/06/02 06:05:55;;;;;;;0.33;0.33;;;17.90;99.90;;;;;;5021629;28;20199;-84
2021/06/02 06:08:41;;;;;;;0.53;0.53;;;18.20;99.90;;;;;;5022834;28;20178;-81
2021/06/02 06:11:46;;;;;;;0.37;0.37;;;18.30;99.90;;;;;;5001163;28;20186;-84
2021/06/02 06:14:22;;;;;;;0.40;0.40;;;18.60;99.90;;;;;;5007912;28;20227;-83
2021/06/02 06:17:15;;;;;;;1.07;0.70;;;18.80;99.90;;;;;;5006244;28;20289;-83
2021/06/02 06:19:40;;;;;;;1.40;0.60;;;18.80;99.90;;;;;;5007965;28;20183;-83
2021/06/02 06:22:25;;;;;;;1.37;0.40;;;18.90;99.90;;;;;;5014192;28;20230;-84
2021/06/02 06:24:54;;;;;;;0.20;0.20;;;19.10;99.90;;;;;;5013582;28;20199;-83
2021/06/02 06:27:46;;;;;;;0.50;0.50;;;19.20;99.90;;;;;;4994552;28;20195;-84
2021/06/02 06:30:15;;;;;;;0.93;0.93;;;19.00;99.90;;;;;;5002689;28;20193;-83
2021/06/02 06:32:42;;;;;;;0.90;0.80;;;19.20;99.90;;;;;;5004981;28;20190;-84
2021/06/02 06:35:10;;;;;;;0.50;0.50;;;19.20;99.90;;;;;;4999051;28;20218;-84
2021/06/02 06:37:39;;;;;;;4.17;0.50;;;19.40;99.90;;;;;;4996201;28;20186;-84
2021/06/02 06:40:10;;;;;;;0.93;0.70;;;19.70;99.90;;;;;;4995084;28;20230;-85
2021/06/02 06:42:40;;;;;;;0.43;0.33;;;19.80;99.90;;;;;;4995832;28;20183;-84
2021/06/02 06:45:16;;;;;;;0.60;0.37;;;20.00;99.90;;;;;;4996447;28;20207;-84
2021/06/02 06:47:44;;;;;;;0.60;0.43;;;20.20;99.90;;;;;;5014431;28;20193;-84
2021/06/02 06:50:12;;;;;;;0.30;0.30;;;20.40;99.90;;;;;;5002459;28;20179;-85
2021/06/02 06:52:41;;;;;;;0.67;0.67;;;20.50;99.90;;;;;;5015110;28;20737;-85
2021/06/02 06:55:08;;;;;;;0.33;0.33;;;20.70;99.90;;;;;;5045976;28;20298;-84
2021/06/02 06:57:35;;;;;;;1.03;0.50;;;20.90;99.90;;;;;;4995570;28;20301;-85
2021/06/02 07:00:01;;;;;;;1.63;0.63;;;21.00;99.90;;;;;;4994127;28;20183;-85
2021/06/02 07:02:28;;;;;;;0.47;0.40;;;20.70;99.90;;;;;;5002489;28;20171;-84
2021/06/02 07:04:54;;;;;;;0.50;0.50;;;20.80;99.90;;;;;;5013555;28;20535;-84
2021/06/02 07:07:20;;;;;;;0.40;0.40;;;21.10;99.90;;;;;;4994831;28;20574;-85
2021/06/02 07:09:46;;;;;;;0.30;0.30;;;21.20;99.90;;;;;;5005391;28;20183;-85
2021/06/02 07:12:16;;;;;;;0.70;0.70;;;21.40;99.90;;;;;;4993999;28;20183;-84
2021/06/02 07:14:42;;;;;;;0.40;0.40;;;20.80;99.90;;;;;;4993709;28;20228;-84
2021/06/02 07:17:09;;;;;;;0.63;0.63;;;20.90;99.90;;;;;;5010801;28;20213;-83
2021/06/02 07:19:40;;;;;;;0.70;0.57;;;21.10;99.90;;;;;;5008641;28;20594;-85
2021/06/02 07:22:07;;;;;;;0.50;0.50;;;21.10;99.90;;;;;;4993990;28;20639;-85
2021/06/02 07:24:34;;;;;;;2.27;1.00;;;21.00;99.90;;;;;;5046630;28;20202;-84
2021/06/02 07:27:01;;;;;;;0.50;0.40;;;20.80;99.90;;;;;;4997222;28;20570;-85
2021/06/02 07:29:27;;;;;;;1.20;0.50;;;21.10;99.90;;;;;;4994007;28;20261;-85
2021/06/02 07:31:53;;;;;;;0.30;0.30;;;21.50;99.90;;;;;;4995380;28;20194;-83
2021/06/02 07:34:20;;;;;;;0.83;0.30;;;21.70;99.90;;;;;;5007916;28;20199;-84
2021/06/02 07:36:46;;;;;;;0.70;0.70;;;21.90;99.90;;;;;;5005510;28;20211;-85
2021/06/02 07:39:12;;;;;;;0.40;0.40;;;21.90;99.90;;;;;;5011105;28;20190;-82
2021/06/02 07:41:37;;;;;;;0.33;0.33;;;22.30;99.90;;;;;;5014762;28;20183;-82
2021/06/02 07:44:03;;;;;;;1.70;0.93;;;22.30;99.90;;;;;;4999579;28;20241;-81
2021/06/02 07:46:30;;;;;;;1.00;0.60;;;22.00;99.90;;;;;;4997686;28;20191;-81
2021/06/02 07:48:56;;;;;;;0.27;0.23;;;22.20;99.90;;;;;;5009361;28;20184;-81
2021/06/02 07:51:22;;;;;;;0.43;0.37;;;22.50;99.90;;;;;;5009668;28;20713;-82
2021/06/02 07:53:48;;;;;;;0.60;0.47;;;22.40;99.90;;;;;;5009725;28;20281;-81
2021/06/02 07:56:14;;;;;;;0.53;0.50;;;22.60;99.90;;;;;;4996185;28;20208;-81
2021/06/02 07:58:41;;;;;;;0.63;0.63;;;22.90;99.90;;;;;;5005711;28;20183;-82
2021/06/02 08:01:07;;;;;;;0.77;0.77;;;22.80;99.90;;;;;;5008588;28;20560;-81
2021/06/02 08:03:33;;;;;;;0.77;0.77;;;23.00;99.90;;;;;;5012300;28;20187;-82
2021/06/02 08:05:58;;;;;;;0.60;0.60;;;23.30;99.90;;;;;;5015517;28;20214;-82
2021/06/02 08:08:24;;;;;;;0.40;0.40;;;23.40;99.90;;;;;;5034224;28;20183;-82
2021/06/02 08:10:50;;;;;;;0.30;0.30;;;23.60;99.90;;;;;;5017077;28;20557;-82
2021/06/02 08:13:16;;;;;;;1.10;1.10;;;23.70;99.90;;;;;;5011931;28;20678;-81
2021/06/02 08:15:41;;;;;;;0.40;0.40;;;23.50;99.90;;;;;;5003143;28;20215;-81
2021/06/02 08:18:07;;;;;;;1.00;0.63;;;23.70;99.90;;;;;;5014421;28;20237;-80
2021/06/02 08:20:33;;;;;;;0.90;0.50;;;23.90;99.90;;;;;;5011132;28;20194;-81
2021/06/02 08:22:58;;;;;;;0.50;0.50;;;23.60;99.90;;;;;;5003542;28;20188;-82
2021/06/02 08:25:24;;;;;;;1.63;0.60;;;23.40;99.90;;;;;;5014442;28;20199;-81
2021/06/02 08:27:50;;;;;;;0.40;0.33;;;23.30;99.90;;;;;;5006832;28;20618;-81
2021/06/02 08:30:16;;;;;;;1.40;0.63;;;23.00;99.90;;;;;;5028692;28;20223;-81
2021/06/02 08:32:42;;;;;;;0.37;0.37;;;23.20;99.90;;;;;;5004375;28;20274;-82
2021/06/02 08:35:10;;;;;;;0.30;0.30;;;23.40;99.90;;;;;;5014207;28;20227;-81
2021/06/02 08:37:35;;;;;;;1.90;1.00;;;23.60;99.90;;;;;;5005827;28;20274;-81
2021/06/02 08:40:01;;;;;;;0.50;0.50;;;22.90;99.90;;;;;;5000846;28;20179;-81
2021/06/02 08:42:27;;;;;;;0.40;0.40;;;22.90;99.90;;;;;;5001283;28;20187;-82
2021/06/02 08:44:53;;;;;;;0.87;0.73;;;23.20;99.90;;;;;;4994178;28;20211;-80
2021/06/02 08:47:19;;;;;;;0.50;0.40;;;23.60;99.90;;;;;;4999858;28;20262;-81
2021/06/02 08:49:45;;;;;;;0.60;0.60;;;23.40;99.90;;;;;;5018934;28;20664;-82
2021/06/02 08:52:11;;;;;;;0.47;0.47;;;23.50;99.90;;;;;;5009208;28;20265;-82
2021/06/02 08:54:37;;;;;;;0.63;0.63;;;23.90;99.90;;;;;;5011223;28;20294;-82
2021/06/02 08:57:06;;;;;;;0.27;0.27;;;24.20;99.90;;;;;;5007080;28;20258;-82
2021/06/02 08:59:32;;;;;;;0.60;0.60;;;24.30;99.90;;;;;;5006407;28;20186;-81
2021/06/02 09:01:59;;;;;;;0.27;0.27;;;23.90;99.90;;;;;;5044200;28;20186;-82
2021/06/02 09:04:25;;;;;;;0.70;0.70;;;23.90;99.90;;;;;;5009810;28;20197;-82
2021/06/02 09:06:51;;;;;;;0.77;0.60;;;24.00;99.90;;;;;;5012973;28;20182;-82
2021/06/02 09:09:17;;;;;;;1.10;0.70;;;24.30;99.90;;;;;;5009420;28;20190;-82
2021/06/02 09:11:49;;;;;;;0.60;0.60;;;23.90;99.90;;;;;;5002816;28;20223;-81
2021/06/02 09:14:27;;;;;;;0.40;0.40;;;24.20;99.90;;;;;;5007628;28;20702;-81
2021/06/02 09:16:55;;;;;;;0.93;0.93;;;24.30;99.90;;;;;;5011996;28;20233;-82
2021/06/02 09:19:38;;;;;;;0.67;0.47;;;24.30;99.90;;;;;;5012871;28;20191;-82
2021/06/02 09:22:10;;;;;;;0.70;0.50;;;24.30;99.90;;;;;;4999293;28;20680;-82
2021/06/02 09:24:50;;;;;;;0.70;0.47;;;24.30;99.90;;;;;;5013082;28;20203;-82
2021/06/02 09:27:18;;;;;;;0.60;0.60;;;24.50;99.90;;;;;;5010290;28;20197;-82
2021/06/02 09:29:49;;;;;;;0.60;0.60;;;24.30;99.90;;;;;;5028299;28;20203;-82
2021/06/02 09:32:23;;;;;;;3.37;1.80;;;24.30;99.90;;;;;;5003916;28;20188;-82
2021/06/02 09:34:57;;;;;;;0.50;0.50;;;24.50;99.90;;;;;;5008479;28;20205;-82
2021/06/02 09:37:23;;;;;;;1.60;0.87;;;24.70;99.90;;;;;;5009769;28;20218;-82
2021/06/02 09:39:49;;;;;;;0.50;0.50;;;23.80;99.90;;;;;;4999354;28;20667;-82
2021/06/02 09:42:26;;;;;;;0.50;0.50;;;24.10;99.90;;;;;;5006828;28;20178;-82
2021/06/02 09:45:06;;;;;;;0.53;0.53;;;24.60;99.90;;;;;;5004702;28;20737;-83
2021/06/02 09:47:46;;;;;;;0.43;0.43;;;25.20;99.90;;;;;;5026537;28;20187;-82
2021/06/02 09:50:16;;;;;;;0.90;0.87;;;24.70;99.90;;;;;;4996077;28;20220;-82
2021/06/02 09:52:50;;;;;;;1.23;0.77;;;24.40;99.90;;;;;;5003142;28;20278;-82
2021/06/02 09:55:21;;;;;;;0.60;0.60;;;24.70;99.90;;;;;;5003611;28;20215;-82
2021/06/02 09:58:14;;;;;;;0.53;0.53;;;25.20;99.90;;;;;;5002734;28;20194;-82
2021/06/02 10:01:00;;;;;;;0.63;0.63;;;24.90;99.90;;;;;;5003272;28;20229;-82
2021/06/02 10:03:32;;;;;;;0.60;0.60;;;24.70;99.90;;;;;;5005359;28;20179;-82
2021/06/02 10:05:58;;;;;;;0.70;0.70;;;24.90;99.90;;;;;;5010517;28;20206;-82
2021/06/02 10:08:32;;;;;;;0.60;0.60;;;25.20;99.90;;;;;;5003560;28;20241;-82
2021/06/02 10:11:13;;;;;;;0.73;0.67;;;25.10;99.90;;;;;;5009212;28;20623;-81
2021/06/02 10:13:40;;;;;;;0.87;0.60;;;25.20;99.90;;;;;;5009246;28;20244;-81
2021/06/02 10:16:05;;;;;;;0.43;0.43;;;25.30;99.90;;;;;;5021616;28;20210;-82
2021/06/02 10:18:39;;;;;;;0.60;0.60;;;25.60;99.90;;;;;;5005653;28;20179;-82
2021/06/02 10:21:13;;;;;;;1.37;0.50;;;25.60;99.90;;;;;;5005702;28;20179;-82
2021/06/02 10:23:48;;;;;;;1.07;0.60;;;25.90;99.90;;;;;;5008043;28;20244;-82
2021/06/02 10:26:18;;;;;;;0.40;0.40;;;25.40;99.90;;;;;;4999855;28;20214;-81
2021/06/02 10:28:45;;;;;;;0.93;0.63;;;25.80;99.90;;;;;;5007078;28;20186;-82
2021/06/02 10:31:13;;;;;;;0.50;0.50;;;25.40;99.90;;;;;;5043140;28;20191;-82
2021/06/02 10:33:40;;;;;;;0.57;0.50;;;25.90;99.90;;;;;;5024651;28;20190;-82
2021/06/02 10:36:10;;;;;;;0.90;0.80;;;26.00;99.90;;;;;;4999802;28;20211;-82
2021/06/02 10:39:00;;;;;;;1.13;0.77;;;26.10;99.90;;;;;;5008016;28;20249;-82
2021/06/02 10:41:30;;;;;;;1.07;0.50;;;25.50;99.90;;;;;;5000651;28;20210;-82
2021/06/02 10:44:12;;;;;;;0.60;0.60;;;25.20;99.90;;;;;;5004659;28;20172;-81
2021/06/02 10:46:42;;;;;;;1.17;0.70;;;25.60;99.90;;;;;;5007010;28;20195;-82
2021/06/02 10:49:08;;;;;;;0.40;0.40;;;26.10;99.90;;;;;;5010676;28;20233;-82
2021/06/02 10:51:41;;;;;;;0.77;0.67;;;26.10;99.90;;;;;;5010253;28;20187;-81
2021/06/02 10:54:19;;;;;;;3.50;0.50;;;26.40;99.90;;;;;;5011089;28;20692;-81
2021/06/02 10:56:57;;;;;;;0.50;0.50;;;26.80;99.90;;;;;;5007758;28;20198;-82
2021/06/02 10:59:35;;;;;;;0.87;0.70;;;26.90;99.90;;;;;;5007096;28;20189;-81
2021/06/02 11:02:03;;;;;;;1.88;0.50;;;26.50;99.90;;;;;;5008541;28;20618;-82
2021/06/02 11:04:30;;;;;;;0.57;0.57;;;26.80;99.90;;;;;;5003146;28;20203;-82
2021/06/02 11:07:19;;;;;;;0.50;0.50;;;27.10;99.90;;;;;;5028087;28;20197;-82
2021/06/02 11:10:05;;;;;;;0.60;0.60;;;26.50;99.90;;;;;;5007455;28;20230;-82
2021/06/02 11:12:49;;;;;;;0.67;0.67;;;26.10;99.90;;;;;;5010886;28;20253;-82
2021/06/02 11:15:43;;;;;;;0.97;0.40;;;26.70;99.90;;;;;;5012932;28;20248;-82
2021/06/02 11:18:09;;;;;;;0.90;0.70;;;27.20;99.90;;;;;;5011816;28;20283;-81
2021/06/02 11:21:06;;;;;;;0.80;0.80;;;27.50;99.90;;;;;;5011729;28;20266;-82
2021/06/02 11:23:35;;;;;;;0.55;0.50;;;27.30;99.90;;;;;;5009870;28;20195;-81
2021/06/02 11:26:26;;;;;;;0.52;0.52;;;27.60;99.90;;;;;;5004863;28;20616;-82
2021/06/02 11:28:52;;;;;;;0.73;0.60;;;27.10;99.90;;;;;;5023255;28;20381;-82
2021/06/02 11:31:30;;;;;;;0.80;0.73;;;27.40;99.90;;;;;;5007377;28;20561;-81
2021/06/02 11:34:24;;;;;;;0.43;0.43;;;27.70;99.90;;;;;;5009515;28;20191;-82
2021/06/02 11:37:05;;;;;;;0.65;0.65;;;27.90;99.90;;;;;;5007248;28;20676;-81
2021/06/02 11:39:32;;;;;;;0.77;0.50;;;28.00;99.90;;;;;;5006022;28;20171;-82
2021/06/02 11:41:58;;;;;;;0.40;0.40;;;28.10;99.90;;;;;;5007831;28;20624;-82
2021/06/02 11:44:31;;;;;;;0.40;0.40;;;28.20;99.90;;;;;;5004082;28;20238;-82
2021/06/02 11:46:58;;;;;;;0.88;0.70;;;28.40;99.90;;;;;;5012262;28;20725;-82
2021/06/02 11:49:27;;;;;;;0.82;0.70;;;28.50;99.90;;;;;;5021185;28;20194;-81
2021/06/02 11:51:55;;;;;;;0.55;0.55;;;28.40;99.90;;;;;;5026569;28;20872;-82
2021/06/02 11:54:21;;;;;;;0.40;0.40;;;28.50;99.90;;;;;;5009435;28;20204;-81
2021/06/02 11:56:47;;;;;;;0.60;0.60;;;28.40;99.90;;;;;;5019826;28;20221;-81
2021/06/02 11:59:12;;;;;;;0.50;0.50;;;28.40;99.90;;;;;;5009385;28;20223;-82
2021/06/02 12:01:38;;;;;;;0.30;0.30;;;28.50;99.90;;;;;;5010691;28;20237;-80
2021/06/02 12:04:04;;;;;;;0.30;0.30;;;28.70;99.90;;;;;;5008274;28;20274;-81
2021/06/02 12:06:34;;;;;;;0.88;0.47;;;28.70;99.90;;;;;;5005959;28;20191;-82
2021/06/02 12:09:10;;;;;;;0.52;0.52;;;28.70;99.90;;;;;;5012694;28;20190;-83
2021/06/02 12:11:38;;;;;;;0.40;0.40;;;28.60;99.90;;;;;;5002923;28;20187;-82
2021/06/02 12:14:03;;;;;;;0.65;0.57;;;28.60;99.90;;;;;;5004108;28;20198;-81
2021/06/02 12:16:29;;;;;;;0.35;0.35;;;28.70;99.90;;;;;;5012617;28;20199;-82
2021/06/02 12:18:59;;;;;;;0.20;0.20;;;28.60;99.90;;;;;;5008960;28;20187;-81
2021/06/02 12:21:30;;;;;;;0.40;0.40;;;28.70;99.90;;;;;;5012866;28;20559;-82
2021/06/02 12:24:02;;;;;;;0.77;0.77;;;28.70;99.90;;;;;;5009385;28;20209;-81
2021/06/02 12:26:47;;;;;;;0.20;0.20;;;28.70;99.90;;;;;;5011165;28;20212;-81
2021/06/02 12:29:16;;;;;;;0.40;0.40;;;28.90;99.90;;;;;;5011738;28;20576;-82
2021/06/02 12:31:48;;;;;;;0.60;0.60;;;28.90;99.90;;;;;;5011457;28;20679;-81
2021/06/02 12:34:18;;;;;;;0.28;0.28;;;29.10;99.90;;;;;;5007881;28;20200;-81
2021/06/02 12:36:47;;;;;;;0.38;0.38;;;28.60;99.90;;;;;;5004390;28;20711;-81
2021/06/02 12:39:14;;;;;;;0.30;0.30;;;28.80;99.90;;;;;;5013904;28;20179;-82
2021/06/02 12:41:45;;;;;;;0.57;0.52;;;28.90;99.90;;;;;;5006836;28;20183;-80
2021/06/02 12:44:13;;;;;;;1.15;0.85;;;29.10;99.90;;;;;;4997285;28;20207;-81
2021/06/02 12:46:38;;;;;;;0.38;0.38;;;29.10;99.90;;;;;;5009446;28;20229;-80
2021/06/02 12:49:08;;;;;;;0.20;0.20;;;29.10;99.90;;;;;;5006068;28;20760;-80
2021/06/02 12:51:35;;;;;;;1.00;0.60;;;29.20;99.90;;;;;;5008436;28;20203;-83
2021/06/02 12:54:01;;;;;;;0.40;0.40;;;29.30;99.90;;;;;;5031372;28;20698;-82
2021/06/02 12:56:27;;;;;;;0.40;0.40;;;29.30;99.90;;;;;;5003658;28;20593;-82
2021/06/02 12:58:58;;;;;;;0.32;0.32;;;29.50;99.90;;;;;;5003755;28;20183;-82
2021/06/02 13:01:33;;;;;;;0.60;0.60;;;29.40;99.90;;;;;;5009939;28;20278;-82
2021/06/02 13:04:02;;;;;;;1.02;0.32;;;29.30;99.90;;;;;;5001285;28;20686;-83
2021/06/02 13:06:30;;;;;;;1.17;0.50;;;29.30;99.90;;;;;;5005027;28;20559;-82
2021/06/02 13:08:56;;;;;;;0.32;0.32;;;29.40;99.90;;;;;;5005012;28;20680;-82
2021/06/02 13:11:30;;;;;;;0.28;0.28;;;29.40;99.90;;;;;;5004987;28;20188;-82
2021/06/02 13:13:58;;;;;;;0.20;0.20;;;29.20;99.90;;;;;;4993782;28;20624;-83
2021/06/02 13:16:24;;;;;;;0.30;0.30;;;29.00;99.90;;;;;;5007433;28;20198;-82
2021/06/02 13:19:07;;;;;;;0.50;0.40;;;29.10;99.90;;;;;;4997237;28;20239;-83
2021/06/02 13:21:35;;;;;;;0.30;0.30;;;29.10;99.90;;;;;;5007203;28;20183;-81
2021/06/02 13:24:08;;;;;;;0.50;0.47;;;29.30;99.90;;;;;;5009092;28;20549;-82
2021/06/02 13:26:34;;;;;;;0.30;0.30;;;29.30;99.90;;;;;;5003491;28;20273;-80
2021/06/02 13:29:00;;;;;;;0.57;0.50;;;29.40;99.90;;;;;;5018574;28;20266;-82
2021/06/02 13:31:38;;;;;;;0.35;0.35;;;29.40;99.90;;;;;;5008827;28;20277;-80